Aviation Digital Data Service (ADDS)

Output produced by METARs form (1413 UTC 27 November 2014)
found at http://aviationweather.gov/adds/metars/
 
KHKY 271159Z 2712/2812 30004KT 3SM BR SCT003 BKN013 
     FM271400 31007KT P6SM BKN060 
     FM271700 32011KT P6SM SCT250 
     FM280000 32007KT P6SM SKC